createdAt,value
2019-02-04T00:00:48.658Z,7.67
2019-02-04T00:03:30.352Z,7.13
2019-02-04T00:06:11.802Z,7.37
2019-02-04T00:08:52.811Z,7.37
2019-02-04T00:11:34.041Z,7.33
2019-02-04T00:14:03.351Z,7.60
2019-02-04T00:16:51.849Z,7.70
2019-02-04T00:19:40.256Z,7.97
2019-02-04T00:22:21.220Z,7.63
2019-02-04T00:25:02.766Z,7.20
2019-02-04T00:27:44.150Z,8.37
2019-02-04T00:30:25.655Z,7.70
2019-02-04T00:33:07.211Z,8.33
2019-02-04T00:35:48.740Z,6.43
2019-02-04T00:38:30.221Z,8.47
2019-02-04T00:40:59.756Z,7.93
2019-02-04T00:43:48.322Z,7.10
2019-02-04T00:46:37.032Z,9.00
2019-02-04T00:49:17.963Z,8.87
2019-02-04T00:51:59.376Z,9.00
2019-02-04T00:54:40.143Z,9.03
2019-02-04T00:57:21.665Z,8.60
2019-02-04T01:00:02.354Z,9.30
2019-02-04T01:02:43.048Z,8.40
2019-02-04T01:05:12.586Z,8.70
2019-02-04T01:08:01.088Z,8.77
2019-02-04T01:10:41.948Z,8.27
2019-02-04T01:13:23.031Z,7.90
2019-02-04T01:16:04.310Z,8.57
2019-02-04T01:18:45.678Z,8.03
2019-02-04T01:21:26.794Z,7.87
2019-02-04T01:24:08.096Z,8.17
2019-02-04T01:26:37.639Z,8.23
2019-02-04T01:29:26.001Z,8.10
2019-02-04T01:32:07.064Z,7.93
2019-02-04T01:34:48.959Z,7.77
2019-02-04T01:37:29.909Z,8.07
2019-02-04T01:40:10.714Z,8.40
2019-02-04T01:42:51.940Z,8.70
2019-02-04T01:45:33.441Z,8.40
2019-02-04T01:48:14.690Z,8.53
2019-02-04T01:50:55.627Z,8.00
2019-02-04T01:53:36.689Z,8.73
2019-02-04T01:56:18.047Z,7.87
2019-02-04T01:58:59.161Z,8.13
2019-02-04T02:01:40.377Z,8.53
2019-02-04T02:04:21.862Z,8.13
2019-02-04T02:07:03.311Z,7.60
2019-02-04T02:09:44.699Z,7.90
2019-02-04T02:12:26.001Z,8.70
2019-02-04T02:15:07.233Z,7.73
2019-02-04T02:17:48.641Z,8.53
2019-02-04T02:20:29.442Z,8.00
2019-02-04T02:23:10.314Z,7.60
2019-02-04T02:25:51.018Z,7.87
2019-02-04T02:28:22.482Z,7.57
2019-02-04T02:31:10.946Z,7.00
2019-02-04T02:33:59.437Z,7.90
2019-02-04T02:36:40.687Z,7.60
2019-02-04T02:39:21.991Z,7.30
2019-02-04T02:42:03.812Z,7.73
2019-02-04T02:44:45.219Z,7.70
2019-02-04T02:47:37.830Z,6.60
2019-02-04T02:49:57.616Z,6.27
2019-02-04T02:52:45.966Z,7.27
2019-02-04T02:55:26.936Z,7.17
2019-02-04T02:58:07.913Z,6.43
2019-02-04T03:00:49.317Z,5.90
2019-02-04T03:03:30.486Z,6.40
2019-02-04T03:06:11.616Z,5.30
2019-02-04T03:08:52.337Z,8.47
2019-02-04T03:11:32.999Z,7.93
2019-02-04T03:14:12.662Z,7.63
2019-02-04T03:16:53.535Z,7.20
2019-02-04T03:19:34.239Z,7.47
2019-02-04T03:22:14.913Z,7.47
2019-02-04T03:24:56.228Z,7.30
2019-02-04T03:27:37.610Z,6.90
2019-02-04T03:30:19.204Z,6.80
2019-02-04T03:33:00.298Z,6.60
2019-02-04T03:35:41.879Z,7.10
2019-02-04T03:38:22.568Z,5.73
2019-02-04T03:41:05.502Z,6.53
2019-02-04T03:43:47.129Z,5.43
2019-02-04T03:46:28.208Z,5.50
2019-02-04T03:49:09.425Z,4.87
2019-02-04T03:51:50.177Z,5.00
2019-02-04T03:54:31.820Z,5.50
2019-02-04T03:57:13.143Z,5.00
2019-02-04T03:59:57.010Z,5.50
2019-02-04T04:02:36.773Z,5.40
2019-02-04T04:05:17.908Z,5.57
2019-02-04T04:07:59.556Z,6.03
2019-02-04T04:10:41.173Z,5.53
2019-02-04T04:13:22.291Z,6.40
2019-02-04T04:16:03.597Z,6.90
2019-02-04T04:18:44.919Z,6.80
2019-02-04T04:21:26.221Z,7.47
2019-02-04T04:24:07.761Z,7.43
2019-02-04T04:26:37.200Z,6.10
2019-02-04T04:29:25.603Z,6.83
2019-02-04T04:32:14.026Z,6.90
2019-02-04T04:34:55.355Z,7.07
2019-02-04T04:37:36.766Z,7.37
2019-02-04T04:40:17.466Z,7.30
2019-02-04T04:42:58.624Z,6.70
2019-02-04T04:45:39.702Z,6.40
2019-02-04T04:48:26.593Z,6.83
2019-02-04T04:51:02.233Z,5.87
2019-02-04T04:53:50.925Z,6.83
2019-02-04T04:56:39.446Z,5.97
2019-02-04T04:59:20.582Z,6.70
2019-02-04T05:02:01.837Z,5.87
2019-02-04T05:04:42.424Z,5.50
2019-02-04T05:07:23.774Z,5.90
2019-02-04T05:10:05.107Z,6.53
2019-02-04T05:12:46.185Z,6.07
2019-02-04T05:15:27.293Z,5.00
2019-02-04T05:18:08.422Z,7.20
2019-02-04T05:20:38.045Z,6.97
2019-02-04T05:23:07.163Z,7.53
2019-02-04T05:25:55.770Z,7.30
2019-02-04T05:28:44.163Z,6.70
2019-02-04T05:31:25.204Z,7.03
2019-02-04T05:34:05.843Z,7.87
2019-02-04T05:36:46.437Z,8.10
2019-02-04T05:39:26.021Z,7.87
2019-02-04T05:42:06.713Z,8.10
2019-02-04T05:44:48.021Z,7.83
2019-02-04T05:47:28.783Z,8.33
2019-02-04T05:50:10.118Z,8.77
2019-02-04T05:52:51.539Z,8.63
2019-02-04T05:55:21.777Z,7.93
2019-02-04T05:57:50.960Z,8.03
2019-02-04T06:00:58.348Z,7.80
2019-02-04T06:03:46.926Z,7.70
2019-02-04T06:06:27.588Z,8.17
2019-02-04T06:09:08.526Z,7.87
2019-02-04T06:11:37.811Z,8.30
2019-02-04T06:14:08.843Z,7.10
2019-02-04T06:16:50.113Z,7.67
2019-02-04T06:19:31.361Z,5.67
2019-02-04T06:22:12.117Z,7.87
2019-02-04T06:24:53.301Z,8.30
2019-02-04T06:27:34.643Z,6.67
2019-02-04T06:30:15.489Z,8.10
2019-02-04T06:32:56.648Z,7.40
2019-02-04T06:35:37.708Z,7.40
2019-02-04T06:38:18.510Z,7.40
2019-02-04T06:40:59.903Z,7.60
2019-02-04T06:43:41.233Z,7.53
2019-02-04T06:46:22.383Z,7.40
2019-02-04T06:49:12.104Z,7.13
2019-02-04T06:51:45.770Z,6.90
2019-02-04T06:54:27.222Z,7.80
2019-02-04T06:57:07.894Z,8.03
2019-02-04T06:59:38.189Z,7.37
2019-02-04T07:02:07.315Z,7.27
2019-02-04T07:04:55.806Z,6.70
2019-02-04T07:07:44.451Z,8.17
2019-02-04T07:10:25.649Z,7.77
2019-02-04T07:13:06.508Z,7.63
2019-02-04T07:15:47.784Z,5.27
2019-02-04T07:18:28.986Z,7.10
2019-02-04T07:21:10.263Z,7.13
2019-02-04T07:23:51.479Z,7.93
2019-02-04T07:26:32.588Z,7.70
2019-02-04T07:29:13.916Z,7.83
2019-02-04T07:31:55.295Z,8.00
2019-02-04T07:34:35.943Z,6.40
2019-02-04T07:37:16.829Z,4.43
2019-02-04T07:39:46.370Z,6.03
2019-02-04T07:42:34.705Z,6.80
2019-02-04T07:45:23.242Z,8.70
2019-02-04T07:48:06.131Z,8.27
2019-02-04T07:50:49.591Z,8.80
2019-02-04T07:53:31.024Z,8.60
2019-02-04T07:56:00.418Z,8.23
2019-02-04T07:58:49.698Z,7.70
2019-02-04T08:01:38.196Z,7.53
2019-02-04T08:04:08.612Z,8.23
2019-02-04T08:06:57.169Z,7.43
2019-02-04T08:09:45.870Z,7.73
2019-02-04T08:12:34.342Z,6.10
2019-02-04T08:15:24.086Z,7.33
2019-02-04T08:18:12.502Z,7.03
2019-02-04T08:20:53.291Z,6.93
2019-02-04T08:23:34.968Z,7.13
2019-02-04T08:26:16.362Z,6.17
2019-02-04T08:28:57.689Z,6.83
2019-02-04T08:31:39.182Z,6.33
2019-02-04T08:34:20.333Z,7.07
2019-02-04T08:37:01.757Z,5.63
2019-02-04T08:39:42.404Z,6.17
2019-02-04T08:42:23.445Z,6.20
2019-02-04T08:45:11.850Z,5.93
2019-02-04T08:47:53.055Z,4.93
2019-02-04T08:50:34.031Z,5.80
2019-02-04T08:53:15.461Z,5.53
2019-02-04T08:55:44.669Z,5.80
2019-02-04T09:01:08.346Z,5.33
2019-02-04T09:03:50.571Z,5.03
2019-02-04T09:06:31.475Z,6.20
2019-02-04T09:09:12.454Z,5.93
2019-02-04T09:11:54.073Z,5.00
2019-02-04T09:14:34.724Z,6.13
2019-02-04T09:17:16.030Z,6.10
2019-02-04T09:20:09.419Z,5.90
2019-02-04T09:22:40.908Z,6.03
2019-02-04T09:25:21.512Z,5.67
2019-02-04T09:28:03.062Z,5.70
2019-02-04T09:30:43.546Z,5.47
2019-02-04T09:33:24.248Z,5.87
2019-02-04T09:36:05.144Z,5.80
2019-02-04T09:38:45.762Z,5.90
2019-02-04T09:41:26.932Z,6.40
2019-02-04T09:44:08.616Z,5.60
2019-02-04T09:46:50.020Z,4.83
2019-02-04T09:49:30.615Z,5.47
2019-02-04T09:52:12.181Z,6.23
2019-02-04T09:54:53.350Z,5.67
2019-02-04T09:57:35.916Z,6.43
2019-02-04T10:00:21.050Z,5.30
2019-02-04T10:03:01.851Z,5.53
2019-02-04T10:05:42.577Z,4.83
2019-02-04T10:08:23.821Z,5.70
2019-02-04T10:11:05.017Z,5.40
2019-02-04T10:13:46.209Z,5.43
2019-02-04T10:16:27.278Z,5.60
2019-02-04T10:19:08.702Z,5.30
2019-02-04T10:21:49.286Z,5.07
2019-02-04T10:24:30.417Z,6.07
2019-02-04T10:27:12.838Z,5.30
2019-02-04T10:29:55.074Z,5.70
2019-02-04T10:32:40.771Z,4.67
2019-02-04T10:35:29.217Z,5.53
2019-02-04T10:38:10.473Z,5.90
2019-02-04T10:40:52.056Z,4.50
2019-02-04T10:43:32.747Z,5.67
2019-02-04T10:46:13.791Z,5.40
2019-02-04T10:48:55.035Z,5.80
2019-02-04T10:51:35.584Z,5.87
2019-02-04T10:54:16.395Z,4.93
2019-02-04T10:56:57.414Z,5.27
2019-02-04T11:02:50.803Z,6.10
2019-02-04T11:05:32.410Z,5.80
2019-02-04T11:08:13.871Z,5.77
2019-02-04T11:11:03.772Z,5.60
2019-02-04T11:13:45.564Z,6.00
2019-02-04T11:16:26.587Z,6.53
2019-02-04T11:19:07.876Z,5.43
2019-02-04T11:21:49.239Z,7.43
2019-02-04T11:24:30.577Z,6.03
2019-02-04T11:27:12.226Z,6.80
2019-02-04T11:29:53.789Z,7.80
2019-02-04T11:32:36.014Z,6.73
2019-02-04T11:35:17.337Z,6.40
2019-02-04T11:37:58.952Z,5.73
2019-02-04T11:40:39.942Z,5.60
2019-02-04T11:43:21.266Z,4.27
2019-02-04T11:46:01.833Z,8.73
2019-02-04T11:48:43.485Z,9.17
2019-02-04T11:51:26.926Z,9.47
2019-02-04T11:54:09.354Z,9.10
2019-02-04T11:56:49.921Z,10.30
2019-02-04T11:59:30.688Z,10.43
2019-02-04T12:02:12.070Z,10.50
2019-02-04T12:04:53.328Z,9.73
2019-02-04T12:07:34.395Z,10.10
2019-02-04T12:10:15.628Z,9.53
2019-02-04T12:12:56.240Z,9.23
2019-02-04T12:15:40.147Z,9.70
2019-02-04T12:18:09.383Z,9.40
2019-02-04T12:20:39.935Z,9.13
2019-02-04T12:23:28.654Z,9.33
2019-02-04T12:26:18.681Z,9.90
2019-02-04T12:28:59.333Z,7.70
2019-02-04T12:31:40.617Z,8.60
2019-02-04T12:34:22.102Z,9.60
2019-02-04T12:37:03.797Z,8.30
2019-02-04T12:39:44.627Z,9.07
2019-02-04T12:42:25.503Z,8.27
2019-02-04T12:45:14.183Z,6.73
2019-02-04T12:48:02.479Z,9.40
2019-02-04T12:50:43.590Z,9.87
2019-02-04T12:53:32.268Z,8.17
2019-02-04T12:56:13.618Z,7.30
2019-02-04T12:58:55.903Z,9.00
2019-02-04T13:01:37.319Z,9.57
2019-02-04T13:04:18.708Z,9.23
2019-02-04T13:07:00.119Z,8.97
2019-02-04T13:09:41.455Z,7.50
2019-02-04T13:12:22.850Z,7.30
2019-02-04T13:15:03.996Z,7.50
2019-02-04T13:17:45.290Z,7.93
2019-02-04T13:20:22.791Z,8.93
2019-02-04T13:23:11.079Z,6.63
2019-02-04T13:25:59.697Z,8.63
2019-02-04T13:28:42.122Z,6.43
2019-02-04T13:31:22.934Z,7.40
2019-02-04T13:34:04.267Z,10.43
2019-02-04T13:36:45.374Z,11.37
2019-02-04T13:39:26.551Z,10.80
2019-02-04T13:42:09.735Z,12.80
2019-02-04T13:44:50.404Z,12.17
2019-02-04T13:47:31.873Z,12.50
2019-02-04T13:50:13.113Z,11.47
2019-02-04T13:52:54.443Z,12.70
2019-02-04T13:55:37.896Z,14.13
2019-02-04T13:58:21.535Z,13.40
2019-02-04T14:01:01.628Z,13.87
2019-02-04T14:03:30.851Z,13.63
2019-02-04T14:06:19.163Z,12.70
2019-02-04T14:09:02.212Z,13.33
2019-02-04T14:11:44.258Z,12.03
2019-02-04T14:14:24.888Z,11.50
2019-02-04T14:17:06.063Z,10.63
2019-02-04T14:19:46.730Z,10.67
2019-02-04T14:22:27.690Z,10.07
2019-02-04T14:25:08.750Z,11.33
2019-02-04T14:27:49.913Z,11.03
2019-02-04T14:30:30.937Z,10.40
2019-02-04T14:33:12.530Z,11.47
2019-02-04T14:35:53.345Z,10.57
2019-02-04T14:38:34.355Z,10.40
2019-02-04T14:41:04.731Z,10.43
2019-02-04T14:43:54.950Z,11.87
2019-02-04T14:46:36.265Z,11.80
2019-02-04T14:49:17.623Z,10.10
2019-02-04T14:51:59.089Z,9.87
2019-02-04T14:54:40.548Z,10.93
2019-02-04T14:57:21.885Z,11.30
2019-02-04T15:00:00.928Z,9.57
2019-02-04T15:03:19.481Z,11.07
2019-02-04T15:05:52.960Z,7.57
2019-02-04T15:08:34.000Z,7.80
2019-02-04T15:11:15.031Z,8.70
2019-02-04T15:13:56.900Z,10.23
2019-02-04T15:16:38.127Z,7.03
2019-02-04T15:19:45.722Z,6.60
2019-02-04T15:22:40.926Z,11.73
2019-02-04T15:25:24.072Z,13.93
2019-02-04T15:28:31.742Z,13.73
2019-02-04T15:31:12.719Z,14.70
2019-02-04T15:34:05.931Z,15.87
2019-02-04T15:37:13.507Z,10.87
2019-02-04T15:39:54.373Z,13.40
2019-02-04T15:42:34.969Z,13.90
2019-02-04T15:45:26.206Z,13.87
2019-02-04T15:48:33.851Z,14.70
2019-02-04T15:51:27.887Z,10.77
2019-02-04T15:57:22.385Z,15.33
2019-02-04T16:00:03.523Z,14.27
2019-02-04T16:02:45.053Z,15.30
2019-02-04T16:05:26.559Z,14.20
2019-02-04T16:08:07.905Z,13.27
2019-02-04T16:10:49.359Z,15.70
2019-02-04T16:13:31.297Z,14.87
2019-02-04T16:16:12.310Z,13.90
2019-02-04T16:18:43.829Z,14.67
2019-02-04T16:21:34.316Z,14.27
2019-02-04T16:24:15.643Z,15.20
2019-02-04T16:26:56.758Z,15.07
2019-02-04T16:29:26.476Z,13.17
2019-02-04T16:35:03.036Z,14.70
2019-02-04T16:37:44.910Z,14.77
2019-02-04T16:40:26.320Z,14.13
2019-02-04T16:43:07.442Z,14.97
2019-02-04T16:45:48.843Z,13.47
2019-02-04T16:48:18.063Z,12.97
2019-02-04T16:51:11.557Z,13.17
2019-02-04T16:56:42.543Z,11.43
2019-02-04T16:59:23.871Z,12.13
2019-02-04T17:01:53.121Z,12.10
2019-02-04T17:04:41.663Z,18.83
2019-02-04T17:07:23.313Z,22.27
2019-02-04T17:10:04.395Z,22.10
2019-02-04T17:12:45.857Z,22.73
2019-02-04T17:15:15.486Z,20.87
2019-02-04T17:18:05.568Z,21.93
2019-02-04T17:20:48.349Z,23.73
2019-02-04T17:23:29.410Z,22.90
2019-02-04T17:26:10.677Z,23.30
2019-02-04T17:28:52.262Z,25.20
2019-02-04T17:31:33.692Z,26.03
2019-02-04T17:34:14.798Z,25.30
2019-02-04T17:36:56.174Z,25.63
2019-02-04T17:39:37.678Z,24.70
2019-02-04T17:42:18.304Z,27.03
2019-02-04T17:44:59.526Z,26.43
2019-02-04T17:47:40.747Z,25.03
2019-02-04T17:50:21.542Z,26.37
2019-02-04T17:53:02.830Z,27.33
2019-02-04T17:55:44.424Z,25.07
2019-02-04T17:58:32.971Z,23.93
2019-02-04T18:01:21.525Z,23.30
2019-02-04T18:04:03.005Z,23.97
2019-02-04T18:06:44.212Z,25.93
2019-02-04T18:09:25.493Z,27.37
2019-02-04T18:12:06.950Z,24.80
2019-02-04T18:14:37.131Z,26.73
2019-02-04T18:17:06.361Z,29.70
2019-02-04T18:19:54.785Z,29.67
2019-02-04T18:22:43.347Z,29.00
2019-02-04T18:25:24.601Z,28.93
2019-02-04T18:28:05.333Z,27.30
2019-02-04T18:30:47.089Z,26.40
2019-02-04T18:33:17.472Z,27.20
2019-02-04T18:36:05.904Z,25.27
2019-02-04T18:38:54.435Z,25.23
2019-02-04T18:41:35.923Z,25.83
2019-02-04T18:44:17.370Z,25.80
2019-02-04T18:46:58.389Z,23.47
2019-02-04T18:49:38.992Z,25.23
2019-02-04T18:52:19.564Z,25.67
2019-02-04T18:55:00.324Z,26.20
2019-02-04T18:57:41.710Z,27.67
2019-02-04T19:00:23.166Z,28.23
2019-02-04T19:03:03.690Z,28.83
2019-02-04T19:05:45.150Z,27.67
2019-02-04T19:08:26.322Z,28.07
2019-02-04T19:11:07.459Z,27.33
2019-02-04T19:13:49.114Z,28.53
2019-02-04T19:16:18.427Z,29.20
2019-02-04T19:19:06.781Z,27.83
2019-02-04T19:21:55.104Z,27.50
2019-02-04T19:24:40.501Z,27.67
2019-02-04T19:27:21.971Z,30.80
2019-02-04T19:30:03.291Z,18.63
2019-02-04T19:32:44.717Z,27.50
2019-02-04T19:35:26.087Z,28.13
2019-02-04T19:37:56.058Z,24.17
2019-02-04T19:40:44.947Z,27.73
2019-02-04T19:43:15.860Z,22.00
2019-02-04T19:46:24.718Z,21.93
2019-02-04T19:49:05.961Z,29.27
2019-02-04T19:51:47.171Z,31.33
2019-02-04T19:54:28.408Z,36.90
2019-02-04T19:57:09.802Z,36.90
2019-02-04T19:59:51.128Z,38.47
2019-02-04T20:02:32.176Z,36.17
2019-02-04T20:05:13.042Z,38.97
2019-02-04T20:07:54.330Z,39.17
2019-02-04T20:10:35.934Z,40.30
2019-02-04T20:13:17.175Z,40.07
2019-02-04T20:15:58.232Z,41.17
2019-02-04T20:18:39.687Z,41.30
2019-02-04T20:21:21.146Z,39.20
2019-02-04T20:24:00.977Z,40.93
2019-02-04T20:26:49.327Z,40.87
2019-02-04T20:29:30.048Z,42.97
2019-02-04T20:32:09.617Z,42.50
2019-02-04T20:34:51.104Z,40.47
2019-02-04T20:37:32.347Z,41.07
2019-02-04T20:40:13.853Z,31.20
2019-02-04T20:42:55.272Z,40.93
2019-02-04T20:45:36.899Z,37.90
2019-02-04T20:48:18.317Z,40.83
2019-02-04T20:50:48.443Z,42.37
2019-02-04T20:53:36.900Z,43.37
2019-02-04T20:56:06.076Z,43.47
2019-02-04T20:58:54.810Z,43.37
2019-02-04T21:01:37.242Z,45.80
2019-02-04T21:04:18.514Z,42.93
2019-02-04T21:06:59.882Z,46.57
2019-02-04T21:09:41.137Z,45.20
2019-02-04T21:12:22.220Z,45.37
2019-02-04T21:15:03.712Z,45.23
2019-02-04T21:17:45.018Z,44.27
2019-02-04T21:23:24.478Z,47.67
2019-02-04T21:26:06.903Z,46.83
2019-02-04T21:28:48.006Z,48.37
2019-02-04T21:31:29.439Z,48.40
2019-02-04T21:34:10.408Z,47.30
2019-02-04T21:36:51.525Z,49.13
2019-02-04T21:39:33.018Z,49.23
2019-02-04T21:42:14.592Z,48.80
2019-02-04T21:44:55.519Z,50.70
2019-02-04T21:47:36.871Z,48.57
2019-02-04T21:50:18.213Z,50.30
2019-02-04T21:52:59.733Z,49.13
2019-02-04T21:55:40.526Z,50.87
2019-02-04T21:58:21.888Z,49.73
2019-02-04T22:01:10.438Z,52.10
2019-02-04T22:03:58.908Z,52.73
2019-02-04T22:06:40.423Z,50.40
2019-02-04T22:12:19.082Z,52.90
2019-02-04T22:18:01.141Z,52.00
2019-02-04T22:20:41.708Z,51.40
2019-02-04T22:23:22.708Z,50.27
2019-02-04T22:26:11.396Z,49.80
2019-02-04T22:28:43.196Z,50.93
2019-02-04T22:31:31.714Z,46.23
2019-02-04T22:34:12.723Z,52.43
2019-02-04T22:36:54.100Z,51.50
2019-02-04T22:39:35.598Z,49.60
2019-02-04T22:42:17.068Z,50.77
2019-02-04T22:44:57.685Z,52.63
2019-02-04T22:47:38.607Z,52.63
2019-02-04T22:50:29.763Z,49.17
2019-02-04T22:53:18.455Z,53.10
2019-02-04T22:55:59.164Z,53.97
2019-02-04T22:58:40.501Z,51.63
2019-02-04T23:01:21.864Z,51.33
2019-02-04T23:04:03.207Z,51.23
2019-02-04T23:06:44.055Z,54.20
2019-02-04T23:09:24.958Z,51.13
2019-02-04T23:12:05.807Z,54.17
2019-02-04T23:14:47.243Z,53.40
2019-02-04T23:17:28.036Z,54.13
2019-02-04T23:20:08.986Z,56.53
2019-02-04T23:22:50.461Z,54.77
2019-02-04T23:25:42.639Z,55.17
2019-02-04T23:28:14.157Z,56.37
2019-02-04T23:30:55.454Z,54.93
2019-02-04T23:33:36.792Z,54.13
2019-02-04T23:36:17.440Z,55.93
2019-02-04T23:38:58.772Z,56.97
2019-02-04T23:41:40.234Z,56.60
2019-02-04T23:44:21.357Z,56.90
2019-02-04T23:47:02.348Z,55.37
2019-02-04T23:49:43.803Z,59.13
2019-02-04T23:52:24.855Z,56.93
2019-02-04T23:55:06.168Z,57.40
2019-02-04T23:57:47.481Z,57.77
